Dublin, Ireland

8:04 AM GMT on December 08, 2016 (GMT +0000)
city suburban | | Change Station

Elev 95 ft 53.40 °N, 6.18 °W | Updated 1 minute ago

Light Rain
Light Rain
51.8 °F
Feels Like 51.8 °F
N
1.0
Wind Variable Wind from NW
Gusts 1.0 mph

Today
High -- | Low -- °F
--% Chance of Precip.
Yesterday
High -- | Low -- °F
Precip. -- in
Pressure 30.06 in
Visibility 6.2 miles
Clouds Few 1500 ft
Scattered Clouds 6000 ft
Mostly Cloudy 10000 ft
Dew Point 51 °F
Humidity 96%
Rainfall 0.17 in
Snow Depth Not available.
8:27 AM 4:06 PM
First Quarter, 61% visible
METAR EIDW 080800Z 25007KT 9999 -RA FEW015 SCT060 BKN100 10/10 Q1018 NOSIG
Pressure 30.06 in
Visibility 6.2 miles
Clouds Few 1500 ft
Scattered Clouds 6000 ft
Mostly Cloudy 10000 ft
Dew Point 51 °F
Humidity 96%
Rainfall 0.17 in
Snow Depth Not available.
8:27 AM 4:06 PM
First Quarter, 61% visible
METAR EIDW 080800Z 25007KT 9999 -RA FEW015 SCT060 BKN100 10/10 Q1018 NOSIG

10-Day Weather Forecast

×

Almanac

Astronomy

Dec. 08, 2016 Rise Set
Actual Time
Civil Twilight
Nautical Twilight
Astronomical Twilight
Moon
Length of Visible Light
Length of Day
Tomorrow will be .
, % of the Moon is Illuminated

Today's Extremes

Country Highs Country Lows

Community

WunderPhotos

Upload Photos

1,956,259 photos uploaded!

WunderBlog® & News

Nearby

Air Quality

  Air Quality AQ Index Pollutant
Not available.

Snow Depth

Station Depth Elevation

Earthquake Activity

City Distance Mag. Time & Date
Minimum magnitude displayed is 2.5.

Coastal Water Temperatures

Place Temperature

Stations

Nearby Weather Stations

Station Location Temp. Windchill Dew Point Humidity Wind Precip. Elev Updated Type